LECO/LCG METAR and TAF weather

Enter ICAO airport designator
Station Type Date Time Source
LECO METAR 2024/04/17 18:30 UTC NOAA

LECO 171830Z 03012G22KT 340V080 9999 FEW025 14/09 Q1019 NOSIG


Station Type Date Time Source
LECO Decoded METAR 2024/04/17 18:30 UTC NOAA

La Coruna / Alvedro, Spain (LECO) 43-18N 008-23W 103M
Apr 17, 2024 - 02:30 PM EDT / 2024.04.17 1830 UTC
Wind: from the NNE (030 degrees) at 14 MPH (12 KT) gusting to 25 MPH (22 KT) (direction variable):0
Visibility: greater than 7 mile(s):0
Sky conditions: mostly clear
Temperature: 57 F (14 C)
Dew Point: 48 F (9 C)
Relative Humidity: 71%
Pressure (altimeter): 30.09 in. Hg (1019 hPa)
ob: LECO 171830Z 03012G22KT 340V080 9999 FEW025 14/09 Q1019 NOSIG
cycle: 18

Station Type Date Time Source
LECO TAF 2024/04/17 15:27 UTC NOAA